Time,TemperatureF,DewpointF,PressureIn,WindDirection,WindDirectionDegrees,WindSpeedMPH,WindSpeedGustMPH,Humidity,HourlyPrecipIn,Conditions,Clouds,dailyrainin,SoftwareType,DateUTC
2013-05-17 00:01:00,61.4,59.0,29.80,ESE,113,0.0,0.4,92,0.00,,,0.00,WUHU216HW,2013-05-17 05:01:00,
2013-05-17 00:06:00,61.4,59.0,29.80,ESE,113,0.0,0.0,92,0.00,,,0.00,WUHU216HW,2013-05-17 05:06:00,
2013-05-17 00:11:00,61.4,59.0,29.80,ESE,113,0.0,0.4,92,0.00,,,0.00,WUHU216HW,2013-05-17 05:11:00,
2013-05-17 00:16:00,61.6,59.2,29.81,ESE,113,0.0,0.4,92,0.00,,,0.00,WUHU216HW,2013-05-17 05:16:00,
2013-05-17 00:21:00,61.6,59.2,29.81,ESE,113,0.0,0.2,92,0.00,,,0.00,WUHU216HW,2013-05-17 05:21:00,
2013-05-17 00:26:00,61.6,59.2,29.81,SSW,194,0.7,1.8,92,0.00,,,0.00,WUHU216HW,2013-05-17 05:26:00,
2013-05-17 00:31:00,61.6,59.2,29.80,SSW,203,0.2,1.8,92,0.00,,,0.00,WUHU216HW,2013-05-17 05:31:00,
2013-05-17 00:36:00,61.6,59.2,29.81,SSW,203,0.2,0.4,92,0.00,,,0.00,WUHU216HW,2013-05-17 05:36:00,
2013-05-17 00:41:00,61.6,59.2,29.81,South,180,0.2,0.4,92,0.00,,,0.00,WUHU216HW,2013-05-17 05:41:00,
2013-05-17 00:46:00,61.4,59.0,29.81,ESE,113,0.4,0.7,92,0.00,,,0.00,WUHU216HW,2013-05-17 05:46:00,
2013-05-17 00:51:00,61.4,59.0,29.80,SE,135,0.0,1.8,92,0.00,,,0.00,WUHU216HW,2013-05-17 05:51:00,
2013-05-17 00:56:00,61.4,59.0,29.80,East,90,0.4,1.8,92,0.00,,,0.00,WUHU216HW,2013-05-17 05:56:00,
2013-05-17 01:01:00,61.6,59.2,29.80,ESE,113,0.4,0.4,92,0.00,,,0.00,WUHU216HW,2013-05-17 06:01:00,
2013-05-17 01:06:00,61.6,59.2,29.80,ESE,113,0.2,0.4,92,0.00,,,0.00,WUHU216HW,2013-05-17 06:06:00,
2013-05-17 01:11:00,61.4,59.0,29.80,ESE,113,0.4,1.8,92,0.00,,,0.00,WUHU216HW,2013-05-17 06:11:00,
2013-05-17 01:16:00,61.4,59.0,29.80,NW,315,0.4,1.8,92,0.00,,,0.00,WUHU216HW,2013-05-17 06:16:00,
2013-05-17 01:21:00,61.4,59.0,29.79,ESE,113,0.7,0.9,92,0.00,,,0.00,WUHU216HW,2013-05-17 06:21:00,
2013-05-17 01:26:00,61.4,59.0,29.80,ESE,113,0.7,1.1,92,0.00,,,0.00,WUHU216HW,2013-05-17 06:26:00,
2013-05-17 01:31:00,61.4,59.0,29.79,SE,135,0.2,1.1,92,0.00,,,0.00,WUHU216HW,2013-05-17 06:31:00,
2013-05-17 01:36:00,61.4,59.0,29.79,SE,135,0.2,0.9,92,0.00,,,0.00,WUHU216HW,2013-05-17 06:36:00,
2013-05-17 01:41:00,61.4,59.0,29.79,SE,138,0.9,1.1,92,0.00,,,0.00,WUHU216HW,2013-05-17 06:41:00,
2013-05-17 01:46:00,61.4,59.4,29.79,ESE,113,0.9,1.1,93,0.00,,,0.00,WUHU216HW,2013-05-17 06:46:00,
2013-05-17 01:51:00,61.4,59.4,29.79,South,180,1.1,1.6,93,0.00,,,0.00,WUHU216HW,2013-05-17 06:51:00,
2013-05-17 01:56:00,61.4,59.4,29.79,South,180,0.4,1.6,93,0.00,,,0.00,WUHU216HW,2013-05-17 06:56:00,
2013-05-17 02:01:00,61.4,59.4,29.79,SE,135,0.9,0.9,93,0.00,,,0.00,WUHU216HW,2013-05-17 07:01:00,
2013-05-17 02:06:00,61.4,59.4,29.79,SE,135,0.0,0.9,93,0.00,,,0.00,WUHU216HW,2013-05-17 07:06:00,
2013-05-17 02:11:00,61.4,59.4,29.79,West,270,0.2,1.1,93,0.00,,,0.00,WUHU216HW,2013-05-17 07:11:00,
2013-05-17 02:16:00,61.4,59.4,29.79,West,270,0.2,1.1,93,0.00,,,0.00,WUHU216HW,2013-05-17 07:16:00,
2013-05-17 02:21:00,61.4,59.4,29.79,West,270,0.1,0.4,93,0.00,,,0.00,WUHU216HW,2013-05-17 07:21:00,
2013-05-17 02:26:00,61.6,59.6,29.79,ESE,113,0.7,0.7,93,0.00,,,0.00,WUHU216HW,2013-05-17 07:26:00,
2013-05-17 02:31:00,61.6,59.6,29.79,SE,135,0.4,1.1,93,0.00,,,0.00,WUHU216HW,2013-05-17 07:31:00,
2013-05-17 02:36:00,61.6,59.6,29.79,SE,135,0.4,1.1,93,0.00,,,0.00,WUHU216HW,2013-05-17 07:36:00,
2013-05-17 02:41:00,61.6,59.6,29.79,ESE,113,0.2,0.9,93,0.00,,,0.00,WUHU216HW,2013-05-17 07:41:00,
2013-05-17 02:46:00,61.6,59.6,29.78,ESE,113,0.2,0.9,93,0.00,,,0.00,WUHU216HW,2013-05-17 07:46:00,
2013-05-17 02:51:00,61.6,59.6,29.78,ESE,113,0.0,0.4,93,0.00,,,0.00,WUHU216HW,2013-05-17 07:51:00,
2013-05-17 02:56:00,61.6,59.6,29.78,ESE,113,0.4,0.4,93,0.00,,,0.00,WUHU216HW,2013-05-17 07:56:00,
2013-05-17 03:01:00,61.6,59.6,29.78,ESE,113,0.0,0.4,93,0.00,,,0.00,WUHU216HW,2013-05-17 08:01:00,
2013-05-17 03:06:00,61.6,59.6,29.78,ESE,113,0.1,0.4,93,0.00,,,0.00,WUHU216HW,2013-05-17 08:06:00,
2013-05-17 03:11:00,61.7,59.8,29.78,ESE,113,0.0,0.4,93,0.00,,,0.00,WUHU216HW,2013-05-17 08:11:00,
2013-05-17 03:16:00,61.7,59.8,29.78,ESE,113,0.0,0.4,93,0.00,,,0.00,WUHU216HW,2013-05-17 08:16:00,
2013-05-17 03:21:00,61.7,59.8,29.78,ESE,113,0.1,0.2,93,0.00,,,0.00,WUHU216HW,2013-05-17 08:21:00,
2013-05-17 03:26:00,61.7,59.8,29.78,ESE,113,0.2,0.2,93,0.00,,,0.00,WUHU216HW,2013-05-17 08:26:00,
2013-05-17 03:31:00,61.7,59.8,29.78,ESE,113,0.0,0.2,93,0.00,,,0.00,WUHU216HW,2013-05-17 08:31:00,
2013-05-17 03:36:00,61.7,59.8,29.78,ESE,113,0.2,0.2,93,0.00,,,0.00,WUHU216HW,2013-05-17 08:36:00,
2013-05-17 03:41:00,61.7,59.8,29.78,ESE,113,0.2,0.4,93,0.00,,,0.00,WUHU216HW,2013-05-17 08:41:00,
2013-05-17 03:46:00,61.7,59.8,29.78,ESE,113,0.0,0.4,93,0.00,,,0.00,WUHU216HW,2013-05-17 08:46:00,
2013-05-17 03:51:00,61.9,60.0,29.78,SE,135,0.3,1.1,93,0.00,,,0.00,WUHU216HW,2013-05-17 08:51:00,
2013-05-17 03:56:00,61.9,60.0,29.78,SE,135,0.1,1.1,93,0.00,,,0.00,WUHU216HW,2013-05-17 08:56:00,
2013-05-17 04:01:00,61.9,60.0,29.78,SE,135,0.4,0.4,93,0.00,,,0.00,WUHU216HW,2013-05-17 09:01:00,
2013-05-17 04:06:00,61.9,60.0,29.78,SE,135,0.0,0.4,93,0.00,,,0.00,WUHU216HW,2013-05-17 09:06:00,
2013-05-17 04:11:00,61.9,60.0,29.78,East,90,0.0,0.4,93,0.00,,,0.00,WUHU216HW,2013-05-17 09:11:00,
2013-05-17 04:16:00,61.9,60.0,29.78,ESE,113,0.0,0.4,93,0.00,,,0.00,WUHU216HW,2013-05-17 09:16:00,
2013-05-17 04:21:00,61.9,60.0,29.78,ESE,113,0.0,0.2,93,0.00,,,0.00,WUHU216HW,2013-05-17 09:21:00,
2013-05-17 04:26:00,61.9,60.0,29.78,ESE,113,0.0,0.2,93,0.00,,,0.00,WUHU216HW,2013-05-17 09:26:00,
2013-05-17 04:31:00,61.9,60.0,29.78,ESE,113,0.0,0.0,93,0.00,,,0.00,WUHU216HW,2013-05-17 09:31:00,
2013-05-17 04:36:00,61.9,60.0,29.78,ESE,113,0.0,0.2,93,0.00,,,0.00,WUHU216HW,2013-05-17 09:36:00,
2013-05-17 04:41:00,61.9,60.0,29.78,ESE,113,0.0,0.2,93,0.00,,,0.00,WUHU216HW,2013-05-17 09:41:00,
2013-05-17 04:46:00,61.9,60.0,29.79,ESE,113,0.2,1.1,93,0.00,,,0.00,WUHU216HW,2013-05-17 09:46:00,
2013-05-17 04:51:00,61.9,60.0,29.78,ESE,113,0.2,1.1,93,0.00,,,0.00,WUHU216HW,2013-05-17 09:51:00,
2013-05-17 04:56:00,61.9,60.0,29.78,ESE,113,0.0,0.7,93,0.00,,,0.00,WUHU216HW,2013-05-17 09:56:00,
2013-05-17 05:01:00,61.9,60.0,29.78,ESE,113,0.0,0.2,93,0.00,,,0.00,WUHU216HW,2013-05-17 10:01:00,
2013-05-17 05:06:00,61.9,60.0,29.78,ESE,113,0.2,0.2,93,0.00,,,0.00,WUHU216HW,2013-05-17 10:06:00,
2013-05-17 05:11:00,61.9,60.0,29.78,ESE,113,0.0,0.2,93,0.00,,,0.00,WUHU216HW,2013-05-17 10:11:00,
2013-05-17 05:16:00,61.9,60.0,29.78,ESE,113,0.0,0.0,93,0.00,,,0.00,WUHU216HW,2013-05-17 10:16:00,
2013-05-17 05:21:00,61.9,60.0,29.78,ESE,113,0.0,0.0,93,0.00,,,0.00,WUHU216HW,2013-05-17 10:21:00,
2013-05-17 05:26:00,61.9,60.0,29.78,ESE,113,0.4,0.4,93,0.00,,,0.00,WUHU216HW,2013-05-17 10:26:00,
2013-05-17 05:31:00,61.9,60.0,29.79,ESE,113,0.0,0.4,93,0.00,,,0.00,WUHU216HW,2013-05-17 10:31:00,
2013-05-17 05:36:00,61.9,60.0,29.79,ESE,113,0.0,0.0,93,0.00,,,0.00,WUHU216HW,2013-05-17 10:36:00,
2013-05-17 05:41:00,61.9,60.0,29.79,ESE,113,0.4,0.4,93,0.00,,,0.00,WUHU216HW,2013-05-17 10:41:00,
2013-05-17 05:46:00,61.7,59.8,29.79,ESE,113,0.2,0.4,93,0.00,,,0.00,WUHU216HW,2013-05-17 10:46:00,
2013-05-17 05:51:00,61.9,60.0,29.80,ESE,113,0.0,0.4,93,0.00,,,0.00,WUHU216HW,2013-05-17 10:51:00,
2013-05-17 05:56:00,61.7,59.8,29.80,ESE,113,0.4,0.4,93,0.00,,,0.00,WUHU216HW,2013-05-17 10:56:00,
2013-05-17 06:01:00,61.9,60.0,29.80,SE,135,0.1,0.4,93,0.00,,,0.00,WUHU216HW,2013-05-17 11:01:00,
2013-05-17 06:06:00,61.9,60.0,29.80,SE,135,0.0,0.4,93,0.00,,,0.00,WUHU216HW,2013-05-17 11:06:00,
2013-05-17 06:11:00,61.9,60.0,29.80,SE,135,0.0,0.0,93,0.00,,,0.00,WUHU216HW,2013-05-17 11:11:00,
2013-05-17 06:16:00,61.9,60.0,29.80,SE,135,0.0,0.4,93,0.00,,,0.00,WUHU216HW,2013-05-17 11:16:00,
2013-05-17 06:21:00,61.9,60.0,29.80,SE,135,0.1,0.7,93,0.00,,,0.00,WUHU216HW,2013-05-17 11:21:00,
2013-05-17 06:26:00,61.9,60.0,29.81,SE,135,0.2,0.7,93,0.00,,,0.00,WUHU216HW,2013-05-17 11:26:00,
2013-05-17 06:31:00,61.9,60.0,29.81,SE,135,0.2,0.2,93,0.00,,,0.00,WUHU216HW,2013-05-17 11:31:00,
2013-05-17 06:36:00,62.1,60.1,29.81,SE,135,0.0,0.2,93,0.00,,,0.00,WUHU216HW,2013-05-17 11:36:00,
2013-05-17 06:42:00,62.3,60.3,29.81,ESE,113,0.7,0.7,93,0.00,,,0.00,WUHU216HW,2013-05-17 11:42:00,
2013-05-17 06:47:00,62.3,60.3,29.81,SSE,158,0.1,0.9,93,0.00,,,0.00,WUHU216HW,2013-05-17 11:47:00,
2013-05-17 06:52:00,62.5,60.5,29.81,SSE,158,0.0,0.9,93,0.00,,,0.00,WUHU216HW,2013-05-17 11:52:00,
2013-05-17 06:57:00,62.5,60.5,29.81,ENE,68,0.1,0.4,93,0.00,,,0.00,WUHU216HW,2013-05-17 11:57:00,
2013-05-17 07:02:00,62.5,60.5,29.81,ESE,113,0.2,1.1,93,0.00,,,0.00,WUHU216HW,2013-05-17 12:02:00,
2013-05-17 07:07:00,62.6,60.7,29.82,ESE,113,0.4,1.1,93,0.00,,,0.00,WUHU216HW,2013-05-17 12:07:00,
2013-05-17 07:12:00,62.6,60.7,29.81,ENE,68,0.4,0.7,93,0.00,,,0.00,WUHU216HW,2013-05-17 12:12:00,
2013-05-17 07:17:00,62.6,60.7,29.82,ENE,68,0.3,0.7,93,0.00,,,0.00,WUHU216HW,2013-05-17 12:17:00,
2013-05-17 07:22:00,62.6,60.7,29.82,SSE,158,0.4,0.4,93,0.00,,,0.00,WUHU216HW,2013-05-17 12:22:00,
2013-05-17 07:27:00,62.6,60.7,29.82,SSE,149,0.6,0.7,93,0.00,,,0.00,WUHU216HW,2013-05-17 12:27:00,
2013-05-17 07:32:00,62.8,60.9,29.83,SSE,158,0.7,0.7,93,0.00,,,0.00,WUHU216HW,2013-05-17 12:32:00,
2013-05-17 07:37:00,62.8,60.9,29.83,ESE,113,0.7,0.7,93,0.00,,,0.00,WUHU216HW,2013-05-17 12:37:00,
2013-05-17 07:42:00,62.8,60.9,29.83,SSW,203,0.0,0.7,93,0.00,,,0.00,WUHU216HW,2013-05-17 12:42:00,
2013-05-17 07:47:00,62.8,60.9,29.83,SW,225,1.6,1.6,93,0.00,,,0.00,WUHU216HW,2013-05-17 12:47:00,
2013-05-17 07:52:00,63.0,61.0,29.83,SW,225,0.9,1.6,93,0.00,,,0.00,WUHU216HW,2013-05-17 12:52:00,
2013-05-17 07:57:00,63.0,61.0,29.83,SSW,203,0.1,1.6,93,0.00,,,0.00,WUHU216HW,2013-05-17 12:57:00,
2013-05-17 08:02:00,63.2,61.2,29.83,SE,135,0.0,1.3,93,0.00,,,0.00,WUHU216HW,2013-05-17 13:02:00,
2013-05-17 08:07:00,63.4,61.4,29.83,SSW,203,0.4,0.7,93,0.00,,,0.00,WUHU216HW,2013-05-17 13:07:00,
2013-05-17 08:12:00,63.5,61.6,29.83,SSW,203,0.2,1.1,93,0.00,,,0.00,WUHU216HW,2013-05-17 13:12:00,
2013-05-17 08:17:00,63.5,61.6,29.83,SW,225,0.2,1.6,93,0.00,,,0.00,WUHU216HW,2013-05-17 13:17:00,
2013-05-17 08:22:00,63.5,61.6,29.83,SW,225,0.4,1.6,93,0.00,,,0.00,WUHU216HW,2013-05-17 13:22:00,
2013-05-17 08:27:00,63.5,61.2,29.84,SW,225,1.3,1.6,92,0.00,,,0.00,WUHU216HW,2013-05-17 13:27:00,
2013-05-17 08:32:00,63.5,61.2,29.83,SW,225,1.3,1.6,92,0.00,,,0.00,WUHU216HW,2013-05-17 13:32:00,
2013-05-17 08:37:00,63.7,61.4,29.84,SSW,203,0.7,2.0,92,0.00,,,0.00,WUHU216HW,2013-05-17 13:37:00,
2013-05-17 08:42:00,63.9,61.6,29.84,SSW,203,1.1,2.0,92,0.00,,,0.00,WUHU216HW,2013-05-17 13:42:00,
2013-05-17 08:47:00,63.9,61.6,29.84,SSW,203,0.2,1.1,92,0.00,,,0.00,WUHU216HW,2013-05-17 13:47:00,
2013-05-17 08:52:00,63.9,61.6,29.84,SE,135,0.7,0.7,92,0.00,,,0.00,WUHU216HW,2013-05-17 13:52:00,
2013-05-17 08:57:00,64.1,61.5,29.84,SW,225,1.1,1.1,91,0.00,,,0.00,WUHU216HW,2013-05-17 13:57:00,
2013-05-17 09:02:00,64.1,61.5,29.85,WSW,248,0.4,1.3,91,0.00,,,0.00,WUHU216HW,2013-05-17 14:02:00,
2013-05-17 09:07:00,64.3,61.7,29.85,SW,225,0.2,1.3,91,0.00,,,0.00,WUHU216HW,2013-05-17 14:07:00,
2013-05-17 09:12:00,64.3,61.7,29.85,WNW,293,0.9,1.1,91,0.00,,,0.00,WUHU216HW,2013-05-17 14:12:00,
2013-05-17 09:17:00,64.4,61.8,29.85,WNW,293,0.4,0.9,91,0.00,,,0.00,WUHU216HW,2013-05-17 14:17:00,
2013-05-17 09:22:00,64.4,61.6,29.85,North,0,0.9,2.0,90,0.00,,,0.00,WUHU216HW,2013-05-17 14:22:00,
2013-05-17 09:27:00,64.6,61.8,29.85,North,0,0.4,2.0,90,0.00,,,0.00,WUHU216HW,2013-05-17 14:27:00,
2013-05-17 09:32:00,64.8,61.9,29.85,NNW,338,0.2,1.1,90,0.00,,,0.00,WUHU216HW,2013-05-17 14:32:00,
2013-05-17 09:37:00,65.2,62.2,29.85,WSW,248,1.8,1.8,90,0.00,,,0.00,WUHU216HW,2013-05-17 14:37:00,
2013-05-17 09:42:00,65.2,62.2,29.85,South,180,0.4,1.8,90,0.00,,,0.00,WUHU216HW,2013-05-17 14:42:00,
2013-05-17 09:47:00,65.2,61.8,29.85,SW,225,1.7,2.2,89,0.00,,,0.00,WUHU216HW,2013-05-17 14:47:00,
2013-05-17 09:52:00,65.3,62.0,29.85,SW,225,0.8,2.2,89,0.00,,,0.00,WUHU216HW,2013-05-17 14:52:00,
2013-05-17 09:57:00,65.3,62.0,29.85,SW,225,0.8,1.6,89,0.00,,,0.00,WUHU216HW,2013-05-17 14:57:00,
2013-05-17 10:02:00,65.5,62.2,29.84,SW,225,0.6,2.5,89,0.00,,,0.00,WUHU216HW,2013-05-17 15:02:00,
2013-05-17 10:07:00,65.9,62.8,29.84,SW,225,0.2,2.5,90,0.00,,,0.00,WUHU216HW,2013-05-17 15:07:00,
2013-05-17 10:12:00,65.9,62.6,29.84,North,0,1.8,1.8,89,0.00,,,0.00,WUHU216HW,2013-05-17 15:12:00,
2013-05-17 10:17:00,66.1,62.4,29.85,North,0,1.2,2.0,88,0.00,,,0.00,WUHU216HW,2013-05-17 15:17:00,
2013-05-17 10:22:00,66.2,62.6,29.84,North,0,0.4,2.0,88,0.00,,,0.00,WUHU216HW,2013-05-17 15:22:00,
2013-05-17 10:27:00,66.6,62.9,29.85,WSW,248,0.4,1.1,88,0.00,,,0.00,WUHU216HW,2013-05-17 15:27:00,
2013-05-17 10:32:00,67.0,63.3,29.84,North,0,3.1,3.1,88,0.00,,,0.00,WUHU216HW,2013-05-17 15:32:00,
2013-05-17 10:37:00,67.1,62.8,29.85,NNW,338,1.1,3.1,86,0.00,,,0.00,WUHU216HW,2013-05-17 15:37:00,
2013-05-17 10:42:00,67.3,63.0,29.85,NW,315,0.4,3.1,86,0.00,,,0.00,WUHU216HW,2013-05-17 15:42:00,
2013-05-17 10:47:00,67.5,63.2,29.85,West,270,1.3,1.3,86,0.00,,,0.00,WUHU216HW,2013-05-17 15:47:00,
2013-05-17 10:52:00,67.5,62.8,29.85,NW,315,0.4,2.0,85,0.00,,,0.00,WUHU216HW,2013-05-17 15:52:00,
2013-05-17 10:57:00,67.7,63.0,29.85,West,270,1.8,2.0,85,0.00,,,0.00,WUHU216HW,2013-05-17 15:57:00,
2013-05-17 11:02:00,67.9,63.2,29.86,SW,225,0.6,2.0,85,0.00,,,0.00,WUHU216HW,2013-05-17 16:02:00,
2013-05-17 11:07:00,68.2,63.6,29.85,SW,223,1.5,2.0,85,0.00,,,0.00,WUHU216HW,2013-05-17 16:07:00,
2013-05-17 11:12:00,68.9,63.9,29.86,WSW,248,2.0,2.0,84,0.00,,,0.00,WUHU216HW,2013-05-17 16:12:00,
2013-05-17 11:17:00,70.0,64.9,29.86,SSW,205,1.0,2.7,84,0.00,,,0.00,WUHU216HW,2013-05-17 16:17:00,
2013-05-17 11:22:00,70.9,65.8,29.85,SE,135,0.7,2.7,84,0.00,,,0.00,WUHU216HW,2013-05-17 16:22:00,
2013-05-17 11:27:00,71.8,64.2,29.85,ESE,113,0.7,2.2,77,0.00,,,0.00,WUHU216HW,2013-05-17 16:27:00,
2013-05-17 11:32:00,71.3,64.5,29.86,NNE,13,2.3,2.7,79,0.00,,,0.00,WUHU216HW,2013-05-17 16:32:00,
2013-05-17 11:37:00,70.6,63.4,29.85,North,0,1.4,2.7,78,0.00,,,0.00,WUHU216HW,2013-05-17 16:37:00,
2013-05-17 11:42:00,70.0,63.5,29.85,NE,45,0.7,2.5,80,0.00,,,0.00,WUHU216HW,2013-05-17 16:42:00,
2013-05-17 11:47:00,70.2,63.7,29.85,SW,225,0.8,1.8,80,0.00,,,0.00,WUHU216HW,2013-05-17 16:47:00,
2013-05-17 11:52:00,71.3,65.2,29.85,East,90,1.3,2.0,81,0.00,,,0.00,WUHU216HW,2013-05-17 16:52:00,
2013-05-17 11:57:00,71.6,65.2,29.85,SW,225,0.6,2.5,80,0.00,,,0.00,WUHU216HW,2013-05-17 16:57:00,
2013-05-17 12:02:00,72.4,65.5,29.84,ESE,113,3.4,3.4,79,0.00,,,0.00,WUHU216HW,2013-05-17 17:02:00,
2013-05-17 12:07:00,73.1,66.3,29.84,SE,139,1.7,3.4,79,0.00,,,0.00,WUHU216HW,2013-05-17 17:07:00,
2013-05-17 12:12:00,74.0,65.6,29.84,WSW,248,1.1,2.5,75,0.00,,,0.00,WUHU216HW,2013-05-17 17:12:00,
2013-05-17 12:17:00,74.5,66.5,29.84,SE,135,0.7,2.7,76,0.00,,,0.00,WUHU216HW,2013-05-17 17:17:00,
2013-05-17 12:22:00,75.2,65.6,29.84,NNE,23,1.3,2.7,72,0.00,,,0.00,WUHU216HW,2013-05-17 17:22:00,
2013-05-17 12:27:00,75.2,65.6,29.84,SE,135,1.1,2.5,72,0.00,,,0.00,WUHU216HW,2013-05-17 17:27:00,
2013-05-17 12:32:00,75.2,65.2,29.84,SW,225,1.8,2.0,71,0.00,,,0.00,WUHU216HW,2013-05-17 17:32:00,
2013-05-17 12:37:00,75.1,65.8,29.84,ESE,113,1.6,2.2,73,0.00,,,0.00,WUHU216HW,2013-05-17 17:37:00,
2013-05-17 12:42:00,75.8,66.2,29.83,SSE,158,1.3,2.2,72,0.00,,,0.00,WUHU216HW,2013-05-17 17:42:00,
2013-05-17 12:47:00,76.5,65.2,29.84,North,0,3.8,3.8,68,0.00,,,0.00,WUHU216HW,2013-05-17 17:47:00,
2013-05-17 12:52:00,76.5,64.7,29.83,NNW,338,1.1,3.8,67,0.00,,,0.00,WUHU216HW,2013-05-17 17:52:00,
2013-05-17 12:57:00,76.0,62.9,29.83,ESE,113,1.2,2.0,64,0.00,,,0.00,WUHU216HW,2013-05-17 17:57:00,
2013-05-17 13:02:00,75.4,64.5,29.83,ESE,119,1.8,2.5,69,0.00,,,0.00,WUHU216HW,2013-05-17 18:02:00,
2013-05-17 13:07:00,75.6,65.2,29.83,SSE,151,0.8,2.5,70,0.00,,,0.00,WUHU216HW,2013-05-17 18:07:00,
2013-05-17 13:12:00,75.4,64.5,29.83,North,0,3.0,3.4,69,0.00,,,0.00,WUHU216HW,2013-05-17 18:12:00,
2013-05-17 13:17:00,74.7,63.9,29.83,North,0,0.9,3.6,69,0.00,,,0.00,WUHU216HW,2013-05-17 18:17:00,
2013-05-17 13:22:00,74.7,62.6,29.83,WSW,254,2.3,3.6,66,0.00,,,0.00,WUHU216HW,2013-05-17 18:22:00,
2013-05-17 13:27:00,74.9,63.2,29.83,WNW,293,0.0,3.4,67,0.00,,,0.00,WUHU216HW,2013-05-17 18:27:00,
2013-05-17 13:32:00,75.4,63.7,29.83,North,0,2.0,2.9,67,0.00,,,0.00,WUHU216HW,2013-05-17 18:32:00,
2013-05-17 13:37:00,76.0,64.2,29.83,SSW,203,1.8,2.9,67,0.00,,,0.00,WUHU216HW,2013-05-17 18:37:00,
2013-05-17 13:42:00,76.5,62.9,29.83,SSE,158,2.9,2.9,63,0.00,,,0.00,WUHU216HW,2013-05-17 18:42:00,
2013-05-17 13:47:00,76.5,63.4,29.83,SSE,167,0.9,2.9,64,0.00,,,0.00,WUHU216HW,2013-05-17 18:47:00,
2013-05-17 13:52:00,76.0,63.7,29.83,South,180,0.6,2.5,66,0.00,,,0.00,WUHU216HW,2013-05-17 18:52:00,
2013-05-17 13:57:00,75.6,63.5,29.83,SSW,203,0.7,1.6,66,0.00,,,0.00,WUHU216HW,2013-05-17 18:57:00,
2013-05-17 14:02:00,75.6,63.8,29.83,ESE,113,1.0,1.6,67,0.00,,,0.00,WUHU216HW,2013-05-17 19:02:00,
2013-05-17 14:07:00,75.6,63.5,29.83,ESE,113,0.4,2.5,66,0.00,,,0.00,WUHU216HW,2013-05-17 19:07:00,
2013-05-17 14:12:00,76.1,64.4,29.83,WSW,248,0.9,2.5,67,0.00,,,0.00,WUHU216HW,2013-05-17 19:12:00,
2013-05-17 14:17:00,76.9,64.6,29.82,WSW,243,2.5,4.0,66,0.00,,,0.00,WUHU216HW,2013-05-17 19:17:00,
2013-05-17 14:22:00,77.0,64.8,29.82,SW,214,2.1,4.0,66,0.00,,,0.00,WUHU216HW,2013-05-17 19:22:00,
2013-05-17 14:27:00,77.2,65.0,29.82,SSW,206,1.2,3.4,66,0.00,,,0.00,WUHU216HW,2013-05-17 19:27:00,
2013-05-17 14:32:00,77.0,64.8,29.82,ESE,113,1.8,2.0,66,0.00,,,0.00,WUHU216HW,2013-05-17 19:32:00,
2013-05-17 14:37:00,76.7,64.9,29.82,ENE,68,0.4,1.8,67,0.00,,,0.00,WUHU216HW,2013-05-17 19:37:00,
2013-05-17 14:42:00,76.5,64.3,29.82,ESE,122,0.4,2.5,66,0.00,,,0.00,WUHU216HW,2013-05-17 19:42:00,
2013-05-17 14:47:00,76.7,64.4,29.82,SSE,158,0.4,2.5,66,0.00,,,0.00,WUHU216HW,2013-05-17 19:47:00,
2013-05-17 14:52:00,76.5,64.3,29.82,ESE,113,2.3,2.7,66,0.00,,,0.00,WUHU216HW,2013-05-17 19:52:00,
2013-05-17 14:57:00,76.5,64.3,29.82,SSE,158,0.2,2.7,66,0.00,,,0.00,WUHU216HW,2013-05-17 19:57:00,
2013-05-17 15:02:00,76.7,64.0,29.82,East,90,1.1,2.7,65,0.00,,,0.00,WUHU216HW,2013-05-17 20:02:00,
2013-05-17 15:07:00,76.5,64.7,29.82,East,90,1.1,1.3,67,0.00,,,0.00,WUHU216HW,2013-05-17 20:07:00,
2013-05-17 15:12:00,76.5,64.3,29.82,SW,225,2.9,4.7,66,0.00,,,0.00,WUHU216HW,2013-05-17 20:12:00,
2013-05-17 15:17:00,76.3,64.5,29.82,SSE,163,0.8,4.7,67,0.00,,,0.00,WUHU216HW,2013-05-17 20:17:00,
2013-05-17 15:22:00,76.5,64.3,29.82,SW,225,1.8,2.9,66,0.00,,,0.00,WUHU216HW,2013-05-17 20:22:00,
2013-05-17 15:27:00,76.7,64.4,29.82,SW,225,1.3,2.9,66,0.00,,,0.00,WUHU216HW,2013-05-17 20:27:00,
2013-05-17 15:32:00,77.0,64.4,29.81,North,0,2.5,2.5,65,0.00,,,0.00,WUHU216HW,2013-05-17 20:32:00,
2013-05-17 15:37:00,77.4,64.3,29.81,West,270,1.1,2.5,64,0.00,,,0.00,WUHU216HW,2013-05-17 20:37:00,
2013-05-17 15:42:00,78.3,66.0,29.81,WSW,248,1.1,2.2,66,0.00,,,0.00,WUHU216HW,2013-05-17 20:42:00,
2013-05-17 15:47:00,79.4,66.2,29.81,SSE,158,1.3,4.5,64,0.00,,,0.00,WUHU216HW,2013-05-17 20:47:00,
2013-05-17 15:52:00,79.7,66.1,29.81,SSE,158,2.7,4.5,63,0.00,,,0.00,WUHU216HW,2013-05-17 20:52:00,
2013-05-17 15:57:00,79.9,64.9,29.81,NNE,23,2.0,3.4,60,0.00,,,0.00,WUHU216HW,2013-05-17 20:57:00,
2013-05-17 16:02:00,79.9,65.8,29.80,North,0,1.8,3.4,62,0.00,,,0.00,WUHU216HW,2013-05-17 21:02:00,
2013-05-17 16:07:00,80.1,63.5,29.80,SW,234,3.0,4.0,57,0.00,,,0.00,WUHU216HW,2013-05-17 21:07:00,
2013-05-17 16:12:00,79.7,65.6,29.80,South,182,1.5,4.0,62,0.00,,,0.00,WUHU216HW,2013-05-17 21:12:00,
2013-05-17 16:17:00,80.6,66.4,29.80,SE,135,2.5,3.4,62,0.00,,,0.00,WUHU216HW,2013-05-17 21:17:00,
2013-05-17 16:22:00,80.6,66.0,29.80,SSW,194,1.5,3.4,61,0.00,,,0.00,WUHU216HW,2013-05-17 21:22:00,
2013-05-17 16:27:00,79.9,65.4,29.80,SE,135,1.1,2.2,61,0.00,,,0.00,WUHU216HW,2013-05-17 21:27:00,
2013-05-17 16:32:00,79.0,64.1,29.80,ESE,113,1.0,1.3,60,0.00,,,0.00,WUHU216HW,2013-05-17 21:32:00,
2013-05-17 16:37:00,78.3,63.8,29.80,ESE,113,1.6,1.8,61,0.00,,,0.00,WUHU216HW,2013-05-17 21:37:00,
2013-05-17 16:42:00,78.1,63.6,29.80,SE,135,1.2,1.8,61,0.00,,,0.00,WUHU216HW,2013-05-17 21:42:00,
2013-05-17 16:47:00,78.1,64.5,29.80,SE,135,1.8,2.5,63,0.00,,,0.00,WUHU216HW,2013-05-17 21:47:00,
2013-05-17 16:52:00,78.3,64.3,29.80,ESE,113,0.4,2.5,62,0.00,,,0.00,WUHU216HW,2013-05-17 21:52:00,
2013-05-17 16:57:00,78.3,64.7,29.80,South,180,0.3,1.3,63,0.00,,,0.00,WUHU216HW,2013-05-17 21:57:00,
2013-05-17 17:02:00,78.1,64.5,29.80,South,180,0.4,0.7,63,0.00,,,0.00,WUHU216HW,2013-05-17 22:02:00,
2013-05-17 17:07:00,78.1,65.0,29.80,ESE,113,1.8,1.8,64,0.00,,,0.00,WUHU216HW,2013-05-17 22:07:00,
2013-05-17 17:12:00,77.8,64.2,29.80,SE,133,1.2,1.8,63,0.00,,,0.00,WUHU216HW,2013-05-17 22:12:00,
2013-05-17 17:17:00,77.4,64.3,29.80,ENE,68,1.1,1.6,64,0.00,,,0.00,WUHU216HW,2013-05-17 22:17:00,
2013-05-17 17:22:00,77.0,64.4,29.80,ENE,68,0.2,1.3,65,0.00,,,0.00,WUHU216HW,2013-05-17 22:22:00,
2013-05-17 17:28:00,76.9,64.2,29.80,ESE,113,1.1,1.1,65,0.00,,,0.00,WUHU216HW,2013-05-17 22:28:00,
2013-05-17 17:33:00,76.7,64.0,29.80,SE,135,0.1,1.3,65,0.00,,,0.00,WUHU216HW,2013-05-17 22:33:00,
2013-05-17 17:38:00,76.7,64.0,29.80,SE,135,1.1,1.3,65,0.00,,,0.00,WUHU216HW,2013-05-17 22:38:00,
2013-05-17 17:43:00,76.5,64.3,29.80,ESE,113,0.1,1.3,66,0.00,,,0.00,WUHU216HW,2013-05-17 22:43:00,
2013-05-17 17:48:00,76.7,64.4,29.80,ESE,113,0.2,1.3,66,0.00,,,0.00,WUHU216HW,2013-05-17 22:48:00,
2013-05-17 17:53:00,76.9,64.6,29.80,ESE,113,0.7,1.1,66,0.00,,,0.00,WUHU216HW,2013-05-17 22:53:00,
2013-05-17 17:58:00,77.4,65.2,29.80,SE,135,1.1,1.1,66,0.00,,,0.00,WUHU216HW,2013-05-17 22:58:00,
2013-05-17 18:03:00,77.8,65.1,29.80,East,90,0.4,1.1,65,0.00,,,0.00,WUHU216HW,2013-05-17 23:03:00,
2013-05-17 18:08:00,77.9,64.4,29.80,East,90,0.6,1.6,63,0.00,,,0.00,WUHU216HW,2013-05-17 23:08:00,
2013-05-17 18:13:00,78.1,64.5,29.80,ESE,113,0.4,1.6,63,0.00,,,0.00,WUHU216HW,2013-05-17 23:13:00,
2013-05-17 18:18:00,78.1,64.1,29.80,South,180,0.9,1.1,62,0.00,,,0.00,WUHU216HW,2013-05-17 23:18:00,
2013-05-17 18:23:00,78.8,63.4,29.80,SW,225,0.6,1.3,59,0.00,,,0.00,WUHU216HW,2013-05-17 23:23:00,
2013-05-17 18:28:00,79.0,64.9,29.79,SSE,158,1.1,1.3,62,0.00,,,0.00,WUHU216HW,2013-05-17 23:28:00,
2013-05-17 18:33:00,79.2,64.6,29.80,South,174,1.0,1.1,61,0.00,,,0.00,WUHU216HW,2013-05-17 23:33:00,
2013-05-17 18:38:00,79.0,63.5,29.80,SE,135,0.4,1.1,59,0.00,,,0.00,WUHU216HW,2013-05-17 23:38:00,
2013-05-17 18:43:00,78.8,64.4,29.79,SSE,148,0.8,1.1,61,0.00,,,0.00,WUHU216HW,2013-05-17 23:43:00,
2013-05-17 18:48:00,78.5,64.5,29.80,ESE,113,0.1,0.9,62,0.00,,,0.00,WUHU216HW,2013-05-17 23:48:00,
2013-05-17 18:53:00,78.5,64.5,29.79,SE,135,0.6,1.3,62,0.00,,,0.00,WUHU216HW,2013-05-17 23:53:00,
2013-05-17 18:58:00,78.5,64.5,29.79,SE,135,1.1,1.3,62,0.00,,,0.00,WUHU216HW,2013-05-17 23:58:00,
2013-05-17 19:03:00,78.1,64.1,29.80,SSE,158,0.4,1.1,62,0.00,,,0.00,WUHU216HW,2013-05-18 00:03:00,
2013-05-17 19:08:00,78.1,64.5,29.80,SE,135,0.0,0.7,63,0.00,,,0.00,WUHU216HW,2013-05-18 00:08:00,
2013-05-17 19:13:00,78.1,64.5,29.79,SE,135,0.1,1.1,63,0.00,,,0.00,WUHU216HW,2013-05-18 00:13:00,
2013-05-17 19:18:00,77.9,64.4,29.80,SE,135,0.2,1.1,63,0.00,,,0.00,WUHU216HW,2013-05-18 00:18:00,
2013-05-17 19:23:00,77.6,64.0,29.80,SE,135,0.6,0.7,63,0.00,,,0.00,WUHU216HW,2013-05-18 00:23:00,
2013-05-17 19:28:00,77.4,64.3,29.80,East,90,0.6,1.1,64,0.00,,,0.00,WUHU216HW,2013-05-18 00:28:00,
2013-05-17 19:33:00,77.0,63.9,29.80,East,90,0.3,1.1,64,0.00,,,0.00,WUHU216HW,2013-05-18 00:33:00,
2013-05-17 19:38:00,76.7,63.5,29.80,East,90,0.0,0.4,64,0.00,,,0.00,WUHU216HW,2013-05-18 00:38:00,
2013-05-17 19:43:00,76.1,63.5,29.80,West,270,0.0,1.1,65,0.00,,,0.00,WUHU216HW,2013-05-18 00:43:00,
2013-05-17 19:48:00,75.6,63.0,29.80,West,270,0.0,1.1,65,0.00,,,0.00,WUHU216HW,2013-05-18 00:48:00,
2013-05-17 19:53:00,74.9,62.7,29.80,West,270,0.0,0.2,66,0.00,,,0.00,WUHU216HW,2013-05-18 00:53:00,
2013-05-17 19:58:00,74.3,62.2,29.80,West,270,0.0,0.4,66,0.00,,,0.00,WUHU216HW,2013-05-18 00:58:00,
2013-05-17 20:03:00,73.8,62.2,29.80,West,270,0.0,0.4,67,0.00,,,0.00,WUHU216HW,2013-05-18 01:03:00,
2013-05-17 20:08:00,73.4,62.3,29.81,West,270,0.0,0.2,68,0.00,,,0.00,WUHU216HW,2013-05-18 01:08:00,
2013-05-17 20:13:00,73.1,62.4,29.80,West,270,0.0,0.0,69,0.00,,,0.00,WUHU216HW,2013-05-18 01:13:00,
2013-05-17 20:18:00,72.7,62.0,29.80,West,270,0.0,0.0,69,0.00,,,0.00,WUHU216HW,2013-05-18 01:18:00,
2013-05-17 20:23:00,72.2,61.9,29.80,West,270,0.0,0.0,70,0.00,,,0.00,WUHU216HW,2013-05-18 01:23:00,
2013-05-17 20:28:00,71.8,61.6,29.80,West,270,0.0,0.0,70,0.00,,,0.00,WUHU216HW,2013-05-18 01:28:00,
2013-05-17 20:33:00,71.5,61.2,29.80,West,270,0.0,0.0,70,0.00,,,0.00,WUHU216HW,2013-05-18 01:33:00,
2013-05-17 20:38:00,71.1,60.8,29.81,West,270,0.0,0.0,70,0.00,,,0.00,WUHU216HW,2013-05-18 01:38:00,
2013-05-17 20:43:00,70.7,60.8,29.81,West,270,0.0,0.0,71,0.00,,,0.00,WUHU216HW,2013-05-18 01:43:00,
2013-05-17 20:48:00,70.4,60.5,29.81,West,270,0.0,0.0,71,0.00,,,0.00,WUHU216HW,2013-05-18 01:48:00,
2013-05-17 20:53:00,70.2,60.7,29.81,West,270,0.0,0.0,72,0.00,,,0.00,WUHU216HW,2013-05-18 01:53:00,
2013-05-17 20:58:00,69.8,60.8,29.81,West,270,0.0,0.0,73,0.00,,,0.00,WUHU216HW,2013-05-18 01:58:00,
2013-05-17 21:03:00,69.5,60.4,29.81,West,270,0.0,0.0,73,0.00,,,0.00,WUHU216HW,2013-05-18 02:03:00,
2013-05-17 21:08:00,69.3,60.6,29.81,West,270,0.0,0.0,74,0.00,,,0.00,WUHU216HW,2013-05-18 02:08:00,
2013-05-17 21:13:00,68.9,60.3,29.82,West,270,0.0,0.0,74,0.00,,,0.00,WUHU216HW,2013-05-18 02:13:00,
2013-05-17 21:18:00,68.8,60.1,29.81,West,270,0.0,0.0,74,0.00,,,0.00,WUHU216HW,2013-05-18 02:18:00,
2013-05-17 21:23:00,68.4,60.2,29.82,West,270,0.0,0.0,75,0.00,,,0.00,WUHU216HW,2013-05-18 02:23:00,
2013-05-17 21:28:00,68.2,60.4,29.82,WSW,248,0.0,0.0,76,0.00,,,0.00,WUHU216HW,2013-05-18 02:28:00,
2013-05-17 21:33:00,68.0,60.2,29.82,WSW,248,0.0,0.0,76,0.00,,,0.00,WUHU216HW,2013-05-18 02:33:00,
2013-05-17 21:38:00,67.9,60.0,29.82,WSW,248,0.0,0.0,76,0.00,,,0.00,WUHU216HW,2013-05-18 02:38:00,
2013-05-17 21:43:00,67.7,60.2,29.82,WSW,248,0.0,0.0,77,0.00,,,0.00,WUHU216HW,2013-05-18 02:43:00,
2013-05-17 21:48:00,67.5,60.0,29.82,WSW,248,0.0,0.0,77,0.00,,,0.00,WUHU216HW,2013-05-18 02:48:00,
2013-05-17 21:53:00,67.3,59.9,29.83,WSW,248,0.0,0.0,77,0.00,,,0.00,WUHU216HW,2013-05-18 02:53:00,
2013-05-17 21:58:00,67.3,60.3,29.83,WSW,248,0.0,0.0,78,0.00,,,0.00,WUHU216HW,2013-05-18 02:58:00,
2013-05-17 22:03:00,67.1,60.1,29.83,WSW,248,0.0,0.0,78,0.00,,,0.00,WUHU216HW,2013-05-18 03:03:00,
2013-05-17 22:08:00,67.1,60.1,29.83,WSW,248,0.0,0.0,78,0.00,,,0.00,WUHU216HW,2013-05-18 03:08:00,
2013-05-17 22:13:00,67.0,60.3,29.83,WSW,248,0.0,0.0,79,0.00,,,0.00,WUHU216HW,2013-05-18 03:13:00,
2013-05-17 22:18:00,67.0,60.3,29.84,WSW,248,0.0,0.0,79,0.00,,,0.00,WUHU216HW,2013-05-18 03:18:00,
2013-05-17 22:23:00,66.8,60.5,29.84,WSW,248,0.0,0.0,80,0.00,,,0.00,WUHU216HW,2013-05-18 03:23:00,
2013-05-17 22:28:00,66.8,60.5,29.84,South,180,0.0,0.0,80,0.00,,,0.00,WUHU216HW,2013-05-18 03:28:00,
2013-05-17 22:33:00,66.6,60.3,29.84,South,180,0.0,0.0,80,0.00,,,0.00,WUHU216HW,2013-05-18 03:33:00,
2013-05-17 22:38:00,66.6,60.3,29.84,South,180,0.0,0.0,80,0.00,,,0.00,WUHU216HW,2013-05-18 03:38:00,
2013-05-17 22:43:00,66.4,60.1,29.84,South,180,0.0,0.0,80,0.00,,,0.00,WUHU216HW,2013-05-18 03:43:00,
2013-05-17 22:48:00,66.2,59.9,29.84,South,180,0.0,0.0,80,0.00,,,0.00,WUHU216HW,2013-05-18 03:48:00,
2013-05-17 22:53:00,66.2,59.9,29.84,South,180,0.0,0.0,80,0.00,,,0.00,WUHU216HW,2013-05-18 03:53:00,
2013-05-17 22:58:00,66.1,60.1,29.85,South,180,0.0,0.0,81,0.00,,,0.00,WUHU216HW,2013-05-18 03:58:00,
2013-05-17 23:01:00,65.9,60.0,29.84,South,180,0.0,0.0,81,0.00,,,0.00,WUHU216HW,2013-05-18 04:01:00,
2013-05-17 23:06:00,65.9,60.0,29.84,South,180,0.0,0.0,81,0.00,,,0.00,WUHU216HW,2013-05-18 04:06:00,
2013-05-17 23:11:00,65.9,60.0,29.84,South,180,0.0,0.0,81,0.00,,,0.00,WUHU216HW,2013-05-18 04:11:00,
2013-05-17 23:16:00,65.7,60.0,29.85,South,180,0.0,0.0,82,0.00,,,0.00,WUHU216HW,2013-05-18 04:16:00,
2013-05-17 23:21:00,65.5,59.9,29.85,South,180,0.0,0.0,82,0.00,,,0.00,WUHU216HW,2013-05-18 04:21:00,
2013-05-17 23:26:00,65.5,59.9,29.85,South,180,0.0,0.0,82,0.00,,,0.00,WUHU216HW,2013-05-18 04:26:00,
2013-05-17 23:31:00,65.5,59.9,29.85,South,180,0.0,0.0,82,0.00,,,0.00,WUHU216HW,2013-05-18 04:31:00,
2013-05-17 23:36:00,65.5,60.2,29.85,South,180,0.0,0.0,83,0.00,,,0.00,WUHU216HW,2013-05-18 04:36:00,
2013-05-17 23:41:00,65.3,60.0,29.85,South,180,0.0,0.0,83,0.00,,,0.00,WUHU216HW,2013-05-18 04:41:00,
2013-05-17 23:46:00,65.3,60.0,29.85,South,180,0.0,0.0,83,0.00,,,0.00,WUHU216HW,2013-05-18 04:46:00,
2013-05-17 23:51:00,65.3,60.0,29.85,South,180,0.0,0.0,83,0.00,,,0.00,WUHU216HW,2013-05-18 04:51:00,
2013-05-17 23:56:00,65.3,60.4,29.85,South,180,0.0,0.0,84,0.00,,,0.00,WUHU216HW,2013-05-18 04:56:00,